sensor_id;sensor_type;location;lat;lon;timestamp;temperature;humidity
11963;DHT22;62678;52.130;5.584;2023-02-02T00:01:15;8.20;99.90
11963;DHT22;62678;52.130;5.584;2023-02-02T00:03:42;8.20;99.90
11963;DHT22;62678;52.130;5.584;2023-02-02T00:06:10;8.20;99.90
11963;DHT22;62678;52.130;5.584;2023-02-02T00:08:37;8.30;99.90
11963;DHT22;62678;52.130;5.584;2023-02-02T00:11:04;8.20;99.90
11963;DHT22;62678;52.130;5.584;2023-02-02T00:13:31;8.20;99.90
11963;DHT22;62678;52.130;5.584;2023-02-02T00:15:58;8.20;99.90
11963;DHT22;62678;52.130;5.584;2023-02-02T00:18:25;8.10;99.90
11963;DHT22;62678;52.130;5.584;2023-02-02T00:20:52;8.10;99.90
11963;DHT22;62678;52.130;5.584;2023-02-02T00:23:20;8.00;99.90
11963;DHT22;62678;52.130;5.584;2023-02-02T00:25:49;8.00;99.90
11963;DHT22;62678;52.130;5.584;2023-02-02T00:28:16;8.00;99.90
11963;DHT22;62678;52.130;5.584;2023-02-02T00:30:43;8.00;99.90
11963;DHT22;62678;52.130;5.584;2023-02-02T00:33:10;7.90;99.90
11963;DHT22;62678;52.130;5.584;2023-02-02T00:35:40;7.90;99.90
11963;DHT22;62678;52.130;5.584;2023-02-02T00:38:06;8.00;99.90
11963;DHT22;62678;52.130;5.584;2023-02-02T00:40:35;7.90;99.90
11963;DHT22;62678;52.130;5.584;2023-02-02T00:43:01;7.90;99.90
11963;DHT22;62678;52.130;5.584;2023-02-02T00:45:29;7.90;99.90
11963;DHT22;62678;52.130;5.584;2023-02-02T00:47:55;7.90;99.90
11963;DHT22;62678;52.130;5.584;2023-02-02T00:50:22;7.90;99.90
11963;DHT22;62678;52.130;5.584;2023-02-02T00:52:49;8.00;99.90
11963;DHT22;62678;52.130;5.584;2023-02-02T00:55:16;7.90;99.90
11963;DHT22;62678;52.130;5.584;2023-02-02T00:57:44;7.90;99.90
11963;DHT22;62678;52.130;5.584;2023-02-02T01:00:13;7.90;99.90
11963;DHT22;62678;52.130;5.584;2023-02-02T01:02:41;7.90;99.90
11963;DHT22;62678;52.130;5.584;2023-02-02T01:05:08;8.00;99.90
11963;DHT22;62678;52.130;5.584;2023-02-02T01:07:35;7.90;99.90
11963;DHT22;62678;52.130;5.584;2023-02-02T01:10:02;8.00;99.90
11963;DHT22;62678;52.130;5.584;2023-02-02T01:12:29;7.90;99.90
11963;DHT22;62678;52.130;5.584;2023-02-02T01:14:57;7.90;99.90
11963;DHT22;62678;52.130;5.584;2023-02-02T01:17:24;7.90;99.90
11963;DHT22;62678;52.130;5.584;2023-02-02T01:19:51;8.00;99.90
11963;DHT22;62678;52.130;5.584;2023-02-02T01:22:17;8.00;99.90
11963;DHT22;62678;52.130;5.584;2023-02-02T01:24:44;7.90;99.90
11963;DHT22;62678;52.130;5.584;2023-02-02T01:27:11;7.90;99.90
11963;DHT22;62678;52.130;5.584;2023-02-02T01:29:38;7.90;99.90
11963;DHT22;62678;52.130;5.584;2023-02-02T01:32:07;7.90;99.90
11963;DHT22;62678;52.130;5.584;2023-02-02T01:34:33;7.90;99.90
11963;DHT22;62678;52.130;5.584;2023-02-02T01:37:00;7.90;99.90
11963;DHT22;62678;52.130;5.584;2023-02-02T01:39:27;7.90;99.90
11963;DHT22;62678;52.130;5.584;2023-02-02T01:41:54;7.90;99.90
11963;DHT22;62678;52.130;5.584;2023-02-02T01:45:00;7.90;99.90
11963;DHT22;62678;52.130;5.584;2023-02-02T01:47:31;7.80;99.90
11963;DHT22;62678;52.130;5.584;2023-02-02T01:49:58;7.70;99.90
11963;DHT22;62678;52.130;5.584;2023-02-02T01:52:28;7.70;99.90
11963;DHT22;62678;52.130;5.584;2023-02-02T01:55:00;7.70;99.90
11963;DHT22;62678;52.130;5.584;2023-02-02T01:57:32;7.70;99.90
11963;DHT22;62678;52.130;5.584;2023-02-02T02:00:03;7.60;99.90
11963;DHT22;62678;52.130;5.584;2023-02-02T02:02:31;7.60;99.90
11963;DHT22;62678;52.130;5.584;2023-02-02T02:05:02;7.60;99.90
11963;DHT22;62678;52.130;5.584;2023-02-02T02:07:30;7.60;99.90
11963;DHT22;62678;52.130;5.584;2023-02-02T02:09:57;7.50;99.90
11963;DHT22;62678;52.130;5.584;2023-02-02T02:12:24;7.50;99.90
11963;DHT22;62678;52.130;5.584;2023-02-02T02:14:51;7.40;99.90
11963;DHT22;62678;52.130;5.584;2023-02-02T02:17:53;7.50;99.90
11963;DHT22;62678;52.130;5.584;2023-02-02T02:30:35;7.40;99.90
11963;DHT22;62678;52.130;5.584;2023-02-02T02:33:05;7.40;99.90
11963;DHT22;62678;52.130;5.584;2023-02-02T02:35:40;7.50;99.90
11963;DHT22;62678;52.130;5.584;2023-02-02T02:38:12;7.50;99.90
11963;DHT22;62678;52.130;5.584;2023-02-02T02:40:45;7.50;99.90
11963;DHT22;62678;52.130;5.584;2023-02-02T02:43:17;7.50;99.90
11963;DHT22;62678;52.130;5.584;2023-02-02T02:45:46;7.50;99.90
11963;DHT22;62678;52.130;5.584;2023-02-02T02:48:15;7.60;99.90
11963;DHT22;62678;52.130;5.584;2023-02-02T02:50:42;7.60;99.90
11963;DHT22;62678;52.130;5.584;2023-02-02T02:53:12;7.70;99.90
11963;DHT22;62678;52.130;5.584;2023-02-02T02:55:45;7.80;99.90
11963;DHT22;62678;52.130;5.584;2023-02-02T02:58:19;7.80;99.90
11963;DHT22;62678;52.130;5.584;2023-02-02T03:00:58;7.80;99.90
11963;DHT22;62678;52.130;5.584;2023-02-02T03:03:33;7.80;99.90
11963;DHT22;62678;52.130;5.584;2023-02-02T03:06:09;7.70;99.90
11963;DHT22;62678;52.130;5.584;2023-02-02T03:08:39;7.70;99.90
11963;DHT22;62678;52.130;5.584;2023-02-02T03:11:09;7.70;99.90
11963;DHT22;62678;52.130;5.584;2023-02-02T03:13:38;7.70;99.90
11963;DHT22;62678;52.130;5.584;2023-02-02T03:16:06;7.70;99.90
11963;DHT22;62678;52.130;5.584;2023-02-02T03:18:37;7.70;99.90
11963;DHT22;62678;52.130;5.584;2023-02-02T03:21:04;7.80;99.90
11963;DHT22;62678;52.130;5.584;2023-02-02T03:23:31;7.80;99.90
11963;DHT22;62678;52.130;5.584;2023-02-02T03:25:58;7.80;99.90
11963;DHT22;62678;52.130;5.584;2023-02-02T03:28:26;7.90;99.90
11963;DHT22;62678;52.130;5.584;2023-02-02T03:30:54;7.90;99.90
11963;DHT22;62678;52.130;5.584;2023-02-02T03:33:21;8.00;99.90
11963;DHT22;62678;52.130;5.584;2023-02-02T03:35:50;7.90;99.90
11963;DHT22;62678;52.130;5.584;2023-02-02T03:38:17;8.00;99.90
11963;DHT22;62678;52.130;5.584;2023-02-02T03:40:43;7.90;99.90
11963;DHT22;62678;52.130;5.584;2023-02-02T03:43:18;7.90;99.90
11963;DHT22;62678;52.130;5.584;2023-02-02T03:45:45;8.00;99.90
11963;DHT22;62678;52.130;5.584;2023-02-02T03:48:12;8.00;99.90
11963;DHT22;62678;52.130;5.584;2023-02-02T03:50:38;8.00;99.90
11963;DHT22;62678;52.130;5.584;2023-02-02T03:53:07;8.00;99.90
11963;DHT22;62678;52.130;5.584;2023-02-02T03:55:33;8.00;99.90
11963;DHT22;62678;52.130;5.584;2023-02-02T03:58:00;8.00;99.90
11963;DHT22;62678;52.130;5.584;2023-02-02T04:00:27;8.00;99.90
11963;DHT22;62678;52.130;5.584;2023-02-02T04:02:54;8.00;99.90
11963;DHT22;62678;52.130;5.584;2023-02-02T04:05:21;8.00;99.90
11963;DHT22;62678;52.130;5.584;2023-02-02T04:07:47;8.00;99.90
11963;DHT22;62678;52.130;5.584;2023-02-02T04:10:16;8.00;99.90
11963;DHT22;62678;52.130;5.584;2023-02-02T04:12:43;8.00;99.90
11963;DHT22;62678;52.130;5.584;2023-02-02T04:15:10;8.00;99.90
11963;DHT22;62678;52.130;5.584;2023-02-02T04:17:40;8.00;99.90
11963;DHT22;62678;52.130;5.584;2023-02-02T04:20:07;8.00;99.90
11963;DHT22;62678;52.130;5.584;2023-02-02T04:22:34;8.00;99.90
11963;DHT22;62678;52.130;5.584;2023-02-02T04:25:01;8.10;99.90
11963;DHT22;62678;52.130;5.584;2023-02-02T04:27:29;8.10;99.90
11963;DHT22;62678;52.130;5.584;2023-02-02T04:29:58;8.10;99.90
11963;DHT22;62678;52.130;5.584;2023-02-02T04:32:25;8.10;99.90
11963;DHT22;62678;52.130;5.584;2023-02-02T04:34:52;8.10;99.90
11963;DHT22;62678;52.130;5.584;2023-02-02T04:37:18;8.10;99.90
11963;DHT22;62678;52.130;5.584;2023-02-02T04:39:46;8.10;99.90
11963;DHT22;62678;52.130;5.584;2023-02-02T04:42:13;8.10;99.90
11963;DHT22;62678;52.130;5.584;2023-02-02T04:44:41;8.10;99.90
11963;DHT22;62678;52.130;5.584;2023-02-02T04:47:10;8.10;99.90
11963;DHT22;62678;52.130;5.584;2023-02-02T04:49:37;8.20;99.90
11963;DHT22;62678;52.130;5.584;2023-02-02T04:52:04;8.20;99.90
11963;DHT22;62678;52.130;5.584;2023-02-02T04:54:32;8.20;99.90
11963;DHT22;62678;52.130;5.584;2023-02-02T04:56:59;8.30;99.90
11963;DHT22;62678;52.130;5.584;2023-02-02T04:59:27;8.20;99.90
11963;DHT22;62678;52.130;5.584;2023-02-02T05:01:58;8.30;99.90
11963;DHT22;62678;52.130;5.584;2023-02-02T05:04:25;8.30;99.90
11963;DHT22;62678;52.130;5.584;2023-02-02T05:06:52;8.30;99.90
11963;DHT22;62678;52.130;5.584;2023-02-02T05:09:19;8.30;99.90
11963;DHT22;62678;52.130;5.584;2023-02-02T05:11:48;8.30;99.90
11963;DHT22;62678;52.130;5.584;2023-02-02T05:14:15;8.30;99.90
11963;DHT22;62678;52.130;5.584;2023-02-02T05:16:46;8.30;99.90
11963;DHT22;62678;52.130;5.584;2023-02-02T05:19:15;8.30;99.90
11963;DHT22;62678;52.130;5.584;2023-02-02T05:21:42;8.20;99.90
11963;DHT22;62678;52.130;5.584;2023-02-02T05:24:10;8.20;99.90
11963;DHT22;62678;52.130;5.584;2023-02-02T05:26:37;8.30;99.90
11963;DHT22;62678;52.130;5.584;2023-02-02T05:29:04;8.20;99.90
11963;DHT22;62678;52.130;5.584;2023-02-02T05:31:32;8.30;99.90
11963;DHT22;62678;52.130;5.584;2023-02-02T05:33:59;8.30;99.90
11963;DHT22;62678;52.130;5.584;2023-02-02T05:36:27;8.30;99.90
11963;DHT22;62678;52.130;5.584;2023-02-02T05:38:54;8.30;99.90
11963;DHT22;62678;52.130;5.584;2023-02-02T05:41:21;8.20;99.90
11963;DHT22;62678;52.130;5.584;2023-02-02T05:43:50;8.30;99.90
11963;DHT22;62678;52.130;5.584;2023-02-02T05:46:16;8.30;99.90
11963;DHT22;62678;52.130;5.584;2023-02-02T05:48:43;8.30;99.90
11963;DHT22;62678;52.130;5.584;2023-02-02T05:51:13;8.30;99.90
11963;DHT22;62678;52.130;5.584;2023-02-02T05:53:42;8.30;99.90
11963;DHT22;62678;52.130;5.584;2023-02-02T05:56:10;8.30;99.90
11963;DHT22;62678;52.130;5.584;2023-02-02T05:58:37;8.30;99.90
11963;DHT22;62678;52.130;5.584;2023-02-02T06:01:04;8.30;99.90
11963;DHT22;62678;52.130;5.584;2023-02-02T06:03:30;8.30;99.90
11963;DHT22;62678;52.130;5.584;2023-02-02T06:06:01;8.30;99.90
11963;DHT22;62678;52.130;5.584;2023-02-02T06:08:27;8.30;99.90
11963;DHT22;62678;52.130;5.584;2023-02-02T06:10:56;8.30;99.90
11963;DHT22;62678;52.130;5.584;2023-02-02T06:13:22;8.20;99.90
11963;DHT22;62678;52.130;5.584;2023-02-02T06:15:49;8.20;99.90
11963;DHT22;62678;52.130;5.584;2023-02-02T06:18:16;8.20;99.90
11963;DHT22;62678;52.130;5.584;2023-02-02T06:20:43;8.20;99.90
11963;DHT22;62678;52.130;5.584;2023-02-02T06:23:11;8.20;99.90
11963;DHT22;62678;52.130;5.584;2023-02-02T06:25:38;8.10;99.90
11963;DHT22;62678;52.130;5.584;2023-02-02T06:28:06;8.20;99.90
11963;DHT22;62678;52.130;5.584;2023-02-02T06:30:33;8.10;99.90
11963;DHT22;62678;52.130;5.584;2023-02-02T06:33:00;8.20;99.90
11963;DHT22;62678;52.130;5.584;2023-02-02T06:35:27;8.20;99.90
11963;DHT22;62678;52.130;5.584;2023-02-02T06:37:54;8.20;99.90
11963;DHT22;62678;52.130;5.584;2023-02-02T06:40:21;8.10;99.90
11963;DHT22;62678;52.130;5.584;2023-02-02T06:42:47;8.10;99.90
11963;DHT22;62678;52.130;5.584;2023-02-02T06:45:21;8.10;99.90
11963;DHT22;62678;52.130;5.584;2023-02-02T06:47:48;8.10;99.90
11963;DHT22;62678;52.130;5.584;2023-02-02T06:50:16;8.10;99.90
11963;DHT22;62678;52.130;5.584;2023-02-02T06:52:46;8.20;99.90
11963;DHT22;62678;52.130;5.584;2023-02-02T06:55:14;8.10;99.90
11963;DHT22;62678;52.130;5.584;2023-02-02T06:57:40;8.10;99.90
11963;DHT22;62678;52.130;5.584;2023-02-02T07:00:08;8.10;99.90
11963;DHT22;62678;52.130;5.584;2023-02-02T07:02:37;8.10;99.90
11963;DHT22;62678;52.130;5.584;2023-02-02T07:05:04;8.10;99.90
11963;DHT22;62678;52.130;5.584;2023-02-02T07:07:31;8.10;99.90
11963;DHT22;62678;52.130;5.584;2023-02-02T07:09:59;8.20;99.90
11963;DHT22;62678;52.130;5.584;2023-02-02T07:12:26;8.20;99.90
11963;DHT22;62678;52.130;5.584;2023-02-02T07:14:52;8.10;99.90
11963;DHT22;62678;52.130;5.584;2023-02-02T07:17:19;8.20;99.90
11963;DHT22;62678;52.130;5.584;2023-02-02T07:19:47;8.30;99.90
11963;DHT22;62678;52.130;5.584;2023-02-02T07:22:14;8.20;99.90
11963;DHT22;62678;52.130;5.584;2023-02-02T07:24:41;8.20;99.90
11963;DHT22;62678;52.130;5.584;2023-02-02T07:27:08;8.20;99.90
11963;DHT22;62678;52.130;5.584;2023-02-02T07:29:34;8.20;99.90
11963;DHT22;62678;52.130;5.584;2023-02-02T07:32:01;8.20;99.90
11963;DHT22;62678;52.130;5.584;2023-02-02T07:34:28;8.20;99.90
11963;DHT22;62678;52.130;5.584;2023-02-02T07:36:58;8.20;99.90
11963;DHT22;62678;52.130;5.584;2023-02-02T07:39:25;8.20;99.90
11963;DHT22;62678;52.130;5.584;2023-02-02T07:41:52;8.20;99.90
11963;DHT22;62678;52.130;5.584;2023-02-02T07:44:19;8.20;99.90
11963;DHT22;62678;52.130;5.584;2023-02-02T07:46:48;8.20;99.90
11963;DHT22;62678;52.130;5.584;2023-02-02T07:49:16;8.20;99.90
11963;DHT22;62678;52.130;5.584;2023-02-02T07:51:43;8.20;99.90
11963;DHT22;62678;52.130;5.584;2023-02-02T07:54:13;8.20;99.90
11963;DHT22;62678;52.130;5.584;2023-02-02T07:56:40;8.20;99.90
11963;DHT22;62678;52.130;5.584;2023-02-02T07:59:09;8.30;99.90
11963;DHT22;62678;52.130;5.584;2023-02-02T08:01:36;8.20;99.90
11963;DHT22;62678;52.130;5.584;2023-02-02T08:04:03;8.20;99.90
11963;DHT22;62678;52.130;5.584;2023-02-02T08:06:31;8.30;99.90
11963;DHT22;62678;52.130;5.584;2023-02-02T08:08:59;8.20;99.90
11963;DHT22;62678;52.130;5.584;2023-02-02T08:11:28;8.30;99.90
11963;DHT22;62678;52.130;5.584;2023-02-02T08:13:57;8.30;99.90
11963;DHT22;62678;52.130;5.584;2023-02-02T08:16:26;8.30;99.90
11963;DHT22;62678;52.130;5.584;2023-02-02T08:18:52;8.30;99.90
11963;DHT22;62678;52.130;5.584;2023-02-02T08:21:19;8.30;99.90
11963;DHT22;62678;52.130;5.584;2023-02-02T08:23:47;8.40;99.90
11963;DHT22;62678;52.130;5.584;2023-02-02T08:26:15;8.30;99.90
11963;DHT22;62678;52.130;5.584;2023-02-02T08:28:50;8.40;99.90
11963;DHT22;62678;52.130;5.584;2023-02-02T08:31:19;8.40;99.90
11963;DHT22;62678;52.130;5.584;2023-02-02T08:33:47;8.30;99.90
11963;DHT22;62678;52.130;5.584;2023-02-02T08:36:15;8.30;99.90
11963;DHT22;62678;52.130;5.584;2023-02-02T08:38:42;8.30;99.90
11963;DHT22;62678;52.130;5.584;2023-02-02T08:41:11;8.40;99.90
11963;DHT22;62678;52.130;5.584;2023-02-02T08:43:39;8.40;99.90
11963;DHT22;62678;52.130;5.584;2023-02-02T08:46:08;8.30;99.90
11963;DHT22;62678;52.130;5.584;2023-02-02T08:48:36;8.40;99.90
11963;DHT22;62678;52.130;5.584;2023-02-02T08:51:03;8.40;99.90
11963;DHT22;62678;52.130;5.584;2023-02-02T08:53:31;8.40;99.90
11963;DHT22;62678;52.130;5.584;2023-02-02T08:56:01;8.40;99.90
11963;DHT22;62678;52.130;5.584;2023-02-02T08:58:29;8.50;99.90
11963;DHT22;62678;52.130;5.584;2023-02-02T09:01:03;8.60;99.90
11963;DHT22;62678;52.130;5.584;2023-02-02T09:03:32;8.60;99.90
11963;DHT22;62678;52.130;5.584;2023-02-02T09:06:05;8.60;99.90
11963;DHT22;62678;52.130;5.584;2023-02-02T09:08:32;8.60;99.90
11963;DHT22;62678;52.130;5.584;2023-02-02T09:11:06;8.60;99.90
11963;DHT22;62678;52.130;5.584;2023-02-02T09:13:34;8.60;99.90
11963;DHT22;62678;52.130;5.584;2023-02-02T09:16:02;8.60;99.90
11963;DHT22;62678;52.130;5.584;2023-02-02T09:18:29;8.60;99.90
11963;DHT22;62678;52.130;5.584;2023-02-02T09:21:01;8.60;99.90
11963;DHT22;62678;52.130;5.584;2023-02-02T09:23:29;8.70;99.90
11963;DHT22;62678;52.130;5.584;2023-02-02T09:25:57;8.70;99.90
11963;DHT22;62678;52.130;5.584;2023-02-02T09:28:23;8.70;99.90
11963;DHT22;62678;52.130;5.584;2023-02-02T09:30:50;8.80;99.90
11963;DHT22;62678;52.130;5.584;2023-02-02T09:33:17;8.80;99.90
11963;DHT22;62678;52.130;5.584;2023-02-02T09:35:44;8.70;99.90
11963;DHT22;62678;52.130;5.584;2023-02-02T09:38:12;8.80;99.90
11963;DHT22;62678;52.130;5.584;2023-02-02T09:40:39;8.70;99.90
11963;DHT22;62678;52.130;5.584;2023-02-02T09:43:16;8.70;99.90
11963;DHT22;62678;52.130;5.584;2023-02-02T09:45:57;8.70;99.90
11963;DHT22;62678;52.130;5.584;2023-02-02T09:48:34;8.70;99.90
11963;DHT22;62678;52.130;5.584;2023-02-02T09:51:06;8.80;99.90
11963;DHT22;62678;52.130;5.584;2023-02-02T09:53:41;8.90;99.90
11963;DHT22;62678;52.130;5.584;2023-02-02T09:56:13;8.90;99.90
11963;DHT22;62678;52.130;5.584;2023-02-02T09:58:52;9.00;99.90
11963;DHT22;62678;52.130;5.584;2023-02-02T10:01:21;9.00;99.90
11963;DHT22;62678;52.130;5.584;2023-02-02T10:03:57;9.00;99.90
11963;DHT22;62678;52.130;5.584;2023-02-02T10:06:32;9.00;99.90
11963;DHT22;62678;52.130;5.584;2023-02-02T10:09:16;8.90;99.90
11963;DHT22;62678;52.130;5.584;2023-02-02T10:11:50;8.90;99.90
11963;DHT22;62678;52.130;5.584;2023-02-02T10:14:24;9.00;99.90
11963;DHT22;62678;52.130;5.584;2023-02-02T10:16:54;9.10;99.90
11963;DHT22;62678;52.130;5.584;2023-02-02T10:19:23;9.00;99.90
11963;DHT22;62678;52.130;5.584;2023-02-02T10:21:59;8.80;99.90
11963;DHT22;62678;52.130;5.584;2023-02-02T10:24:32;8.90;99.90
11963;DHT22;62678;52.130;5.584;2023-02-02T10:27:02;8.80;99.90
11963;DHT22;62678;52.130;5.584;2023-02-02T10:29:34;8.80;99.90
11963;DHT22;62678;52.130;5.584;2023-02-02T10:32:13;8.80;99.90
11963;DHT22;62678;52.130;5.584;2023-02-02T10:34:56;8.80;99.90
11963;DHT22;62678;52.130;5.584;2023-02-02T10:37:28;8.90;99.90
11963;DHT22;62678;52.130;5.584;2023-02-02T10:40:16;8.90;99.90
11963;DHT22;62678;52.130;5.584;2023-02-02T10:42:54;8.90;99.90
11963;DHT22;62678;52.130;5.584;2023-02-02T10:45:42;9.00;99.90
11963;DHT22;62678;52.130;5.584;2023-02-02T10:48:13;9.10;99.90
11963;DHT22;62678;52.130;5.584;2023-02-02T10:50:49;9.00;99.90
11963;DHT22;62678;52.130;5.584;2023-02-02T10:53:18;9.10;99.90
11963;DHT22;62678;52.130;5.584;2023-02-02T10:55:50;9.00;99.90
11963;DHT22;62678;52.130;5.584;2023-02-02T10:58:25;9.00;99.90
11963;DHT22;62678;52.130;5.584;2023-02-02T11:00:54;9.00;99.90
11963;DHT22;62678;52.130;5.584;2023-02-02T11:03:26;9.00;99.90
11963;DHT22;62678;52.130;5.584;2023-02-02T11:05:53;9.00;99.90
11963;DHT22;62678;52.130;5.584;2023-02-02T11:08:39;9.20;99.90
11963;DHT22;62678;52.130;5.584;2023-02-02T11:11:11;9.20;99.90
11963;DHT22;62678;52.130;5.584;2023-02-02T11:13:45;9.30;99.90
11963;DHT22;62678;52.130;5.584;2023-02-02T11:16:22;9.20;99.90
11963;DHT22;62678;52.130;5.584;2023-02-02T11:18:51;9.10;99.90
11963;DHT22;62678;52.130;5.584;2023-02-02T11:21:20;9.20;99.90
11963;DHT22;62678;52.130;5.584;2023-02-02T11:23:55;9.10;99.90
11963;DHT22;62678;52.130;5.584;2023-02-02T11:26:24;9.10;99.90
11963;DHT22;62678;52.130;5.584;2023-02-02T11:28:53;9.10;99.90
11963;DHT22;62678;52.130;5.584;2023-02-02T11:31:31;9.00;99.90
11963;DHT22;62678;52.130;5.584;2023-02-02T11:34:13;9.10;99.90
11963;DHT22;62678;52.130;5.584;2023-02-02T11:36:57;9.20;99.90
11963;DHT22;62678;52.130;5.584;2023-02-02T11:39:24;9.10;99.90
11963;DHT22;62678;52.130;5.584;2023-02-02T11:41:58;9.10;99.90
11963;DHT22;62678;52.130;5.584;2023-02-02T11:44:27;9.10;99.90
11963;DHT22;62678;52.130;5.584;2023-02-02T11:46:56;9.00;99.90
11963;DHT22;62678;52.130;5.584;2023-02-02T11:49:24;9.00;99.90
11963;DHT22;62678;52.130;5.584;2023-02-02T11:51:58;9.00;99.90
11963;DHT22;62678;52.130;5.584;2023-02-02T11:54:27;9.10;99.90
11963;DHT22;62678;52.130;5.584;2023-02-02T11:56:59;9.00;99.90
11963;DHT22;62678;52.130;5.584;2023-02-02T11:59:29;9.00;99.90
11963;DHT22;62678;52.130;5.584;2023-02-02T12:02:25;9.10;99.90
11963;DHT22;62678;52.130;5.584;2023-02-02T12:05:13;9.20;99.90
11963;DHT22;62678;52.130;5.584;2023-02-02T12:07:48;9.10;99.90
11963;DHT22;62678;52.130;5.584;2023-02-02T12:10:18;9.20;99.90
11963;DHT22;62678;52.130;5.584;2023-02-02T12:12:55;9.20;99.90
11963;DHT22;62678;52.130;5.584;2023-02-02T12:15:33;9.20;99.90
11963;DHT22;62678;52.130;5.584;2023-02-02T12:18:14;9.20;99.90
11963;DHT22;62678;52.130;5.584;2023-02-02T12:20:50;9.00;99.90
11963;DHT22;62678;52.130;5.584;2023-02-02T12:23:34;9.10;99.90
11963;DHT22;62678;52.130;5.584;2023-02-02T12:26:18;9.00;99.90
11963;DHT22;62678;52.130;5.584;2023-02-02T12:29:08;9.10;99.90
11963;DHT22;62678;52.130;5.584;2023-02-02T12:31:44;9.00;99.90
11963;DHT22;62678;52.130;5.584;2023-02-02T12:34:21;9.00;99.90
11963;DHT22;62678;52.130;5.584;2023-02-02T12:36:57;9.00;99.90
11963;DHT22;62678;52.130;5.584;2023-02-02T12:39:32;9.00;99.90
11963;DHT22;62678;52.130;5.584;2023-02-02T12:42:24;9.00;99.90
11963;DHT22;62678;52.130;5.584;2023-02-02T12:45:18;9.00;99.90
11963;DHT22;62678;52.130;5.584;2023-02-02T12:47:59;9.00;99.90
11963;DHT22;62678;52.130;5.584;2023-02-02T12:50:30;9.00;99.90
11963;DHT22;62678;52.130;5.584;2023-02-02T12:53:14;9.00;99.90
11963;DHT22;62678;52.130;5.584;2023-02-02T12:55:49;9.00;99.90
11963;DHT22;62678;52.130;5.584;2023-02-02T12:58:25;9.00;99.90
11963;DHT22;62678;52.130;5.584;2023-02-02T13:01:04;8.90;99.90
11963;DHT22;62678;52.130;5.584;2023-02-02T13:03:47;8.80;99.90
11963;DHT22;62678;52.130;5.584;2023-02-02T13:06:52;9.00;99.90
11963;DHT22;62678;52.130;5.584;2023-02-02T13:09:27;9.00;99.90
11963;DHT22;62678;52.130;5.584;2023-02-02T13:12:01;9.00;99.90
11963;DHT22;62678;52.130;5.584;2023-02-02T13:14:35;9.00;99.90
11963;DHT22;62678;52.130;5.584;2023-02-02T13:17:11;9.00;99.90
11963;DHT22;62678;52.130;5.584;2023-02-02T13:19:41;9.00;99.90
11963;DHT22;62678;52.130;5.584;2023-02-02T13:22:12;8.90;99.90
11963;DHT22;62678;52.130;5.584;2023-02-02T13:24:43;8.90;99.90
11963;DHT22;62678;52.130;5.584;2023-02-02T13:27:14;8.90;99.90
11963;DHT22;62678;52.130;5.584;2023-02-02T13:29:45;8.80;99.90
11963;DHT22;62678;52.130;5.584;2023-02-02T13:32:20;8.80;99.90
11963;DHT22;62678;52.130;5.584;2023-02-02T13:34:54;8.80;99.90
11963;DHT22;62678;52.130;5.584;2023-02-02T13:37:27;8.90;99.90
11963;DHT22;62678;52.130;5.584;2023-02-02T13:39:59;8.80;99.90
11963;DHT22;62678;52.130;5.584;2023-02-02T13:42:34;8.90;99.90
11963;DHT22;62678;52.130;5.584;2023-02-02T13:45:25;8.80;99.90
11963;DHT22;62678;52.130;5.584;2023-02-02T13:47:59;8.80;99.90
11963;DHT22;62678;52.130;5.584;2023-02-02T13:50:39;8.90;99.90
11963;DHT22;62678;52.130;5.584;2023-02-02T13:53:26;8.90;99.90
11963;DHT22;62678;52.130;5.584;2023-02-02T13:56:28;8.80;99.90
11963;DHT22;62678;52.130;5.584;2023-02-02T13:59:07;8.90;99.90
11963;DHT22;62678;52.130;5.584;2023-02-02T14:01:47;9.00;99.90
11963;DHT22;62678;52.130;5.584;2023-02-02T14:04:20;8.90;99.90
11963;DHT22;62678;52.130;5.584;2023-02-02T14:06:54;8.90;99.90
11963;DHT22;62678;52.130;5.584;2023-02-02T14:09:24;9.00;99.90
11963;DHT22;62678;52.130;5.584;2023-02-02T14:11:56;8.90;99.90
11963;DHT22;62678;52.130;5.584;2023-02-02T14:14:24;8.90;99.90
11963;DHT22;62678;52.130;5.584;2023-02-02T14:17:03;9.00;99.90
11963;DHT22;62678;52.130;5.584;2023-02-02T14:19:48;9.00;99.90
11963;DHT22;62678;52.130;5.584;2023-02-02T14:22:44;9.00;99.90
11963;DHT22;62678;52.130;5.584;2023-02-02T14:25:52;9.00;99.90
11963;DHT22;62678;52.130;5.584;2023-02-02T14:28:47;9.00;99.90
11963;DHT22;62678;52.130;5.584;2023-02-02T14:31:24;9.00;99.90
11963;DHT22;62678;52.130;5.584;2023-02-02T14:34:14;9.00;99.90
11963;DHT22;62678;52.130;5.584;2023-02-02T14:36:52;9.00;99.90
11963;DHT22;62678;52.130;5.584;2023-02-02T14:39:23;9.00;99.90
11963;DHT22;62678;52.130;5.584;2023-02-02T14:45:22;9.10;99.90
11963;DHT22;62678;52.130;5.584;2023-02-02T14:47:52;9.10;99.90
11963;DHT22;62678;52.130;5.584;2023-02-02T14:50:26;9.10;99.90
11963;DHT22;62678;52.130;5.584;2023-02-02T14:53:02;9.10;99.90
11963;DHT22;62678;52.130;5.584;2023-02-02T14:55:31;9.20;99.90
11963;DHT22;62678;52.130;5.584;2023-02-02T14:58:01;9.10;99.90
11963;DHT22;62678;52.130;5.584;2023-02-02T15:00:30;9.10;99.90
11963;DHT22;62678;52.130;5.584;2023-02-02T15:03:21;9.10;99.90
11963;DHT22;62678;52.130;5.584;2023-02-02T15:06:03;9.10;99.90
11963;DHT22;62678;52.130;5.584;2023-02-02T15:08:31;9.10;99.90
11963;DHT22;62678;52.130;5.584;2023-02-02T15:11:08;9.10;99.90
11963;DHT22;62678;52.130;5.584;2023-02-02T15:14:03;9.10;99.90
11963;DHT22;62678;52.130;5.584;2023-02-02T15:16:33;9.10;99.90
11963;DHT22;62678;52.130;5.584;2023-02-02T15:19:10;9.00;99.90
11963;DHT22;62678;52.130;5.584;2023-02-02T15:21:39;9.00;99.90
11963;DHT22;62678;52.130;5.584;2023-02-02T15:24:18;8.90;99.90
11963;DHT22;62678;52.130;5.584;2023-02-02T15:26:47;8.90;99.90
11963;DHT22;62678;52.130;5.584;2023-02-02T15:29:20;9.00;99.90
11963;DHT22;62678;52.130;5.584;2023-02-02T15:31:52;9.00;99.90
11963;DHT22;62678;52.130;5.584;2023-02-02T15:34:24;9.00;99.90
11963;DHT22;62678;52.130;5.584;2023-02-02T15:36:53;9.00;99.90
11963;DHT22;62678;52.130;5.584;2023-02-02T15:39:27;9.00;99.90
11963;DHT22;62678;52.130;5.584;2023-02-02T15:41:57;9.00;99.90
11963;DHT22;62678;52.130;5.584;2023-02-02T15:44:44;9.00;99.90
11963;DHT22;62678;52.130;5.584;2023-02-02T15:47:13;9.00;99.90
11963;DHT22;62678;52.130;5.584;2023-02-02T15:49:41;9.00;99.90
11963;DHT22;62678;52.130;5.584;2023-02-02T15:52:13;9.00;99.90
11963;DHT22;62678;52.130;5.584;2023-02-02T15:54:51;9.10;99.90
11963;DHT22;62678;52.130;5.584;2023-02-02T15:57:25;9.10;99.90
11963;DHT22;62678;52.130;5.584;2023-02-02T15:59:53;9.10;99.90
11963;DHT22;62678;52.130;5.584;2023-02-02T16:02:24;9.10;99.90
11963;DHT22;62678;52.130;5.584;2023-02-02T16:04:52;9.10;99.90
11963;DHT22;62678;52.130;5.584;2023-02-02T16:07:20;9.10;99.90
11963;DHT22;62678;52.130;5.584;2023-02-02T16:09:50;9.10;99.90
11963;DHT22;62678;52.130;5.584;2023-02-02T16:12:18;9.10;99.90
11963;DHT22;62678;52.130;5.584;2023-02-02T16:14:48;9.10;99.90
11963;DHT22;62678;52.130;5.584;2023-02-02T16:17:20;9.00;99.90
11963;DHT22;62678;52.130;5.584;2023-02-02T16:19:48;9.10;99.90
11963;DHT22;62678;52.130;5.584;2023-02-02T16:22:17;9.10;99.90
11963;DHT22;62678;52.130;5.584;2023-02-02T16:24:51;9.10;99.90